Time;durP1;ratioP1;P1;durP2;ratioP2;P2;SDS_P1;SDS_P2;PMS_P1;PMS_P2;Temp;Humidity;BMP_temperature;BMP_pressure;BME280_temperature;BME280_humidity;BME280_pressure;Samples;Min_cycle;Max_cycle;Signal;HPM_P1;HPM_P2
2022/10/19 00:00:42;;;;;;;10.37;5.53;;;;;;;;;;5013182;28;20855;-73
2022/10/19 00:03:07;;;;;;;10.57;4.77;;;;;;;;;;5031580;28;21063;-75
2022/10/19 00:05:32;;;;;;;10.13;5.07;;;;;;;;;;5015555;28;20567;-74
2022/10/19 00:08:00;;;;;;;19.25;5.00;;;;;;;;;;5012168;28;20032;-76
2022/10/19 00:10:25;;;;;;;10.00;5.18;;;;;;;;;;5014040;28;20052;-76
2022/10/19 00:12:50;;;;;;;11.23;4.47;;;;;;;;;;5017019;28;20085;-75
2022/10/19 00:15:16;;;;;;;12.30;4.93;;;;;;;;;;5010739;28;20123;-75
2022/10/19 00:17:42;;;;;;;11.48;4.95;;;;;;;;;;5030272;28;20489;-76
2022/10/19 00:20:07;;;;;;;12.13;5.63;;;;;;;;;;5012271;28;20055;-76
2022/10/19 00:22:32;;;;;;;8.68;4.20;;;;;;;;;;5018265;28;20108;-76
2022/10/19 00:24:58;;;;;;;11.88;5.13;;;;;;;;;;5012682;28;20881;-76
2022/10/19 00:27:23;;;;;;;8.57;4.22;;;;;;;;;;5018444;28;20076;-75
2022/10/19 00:29:48;;;;;;;14.00;5.82;;;;;;;;;;5032308;28;20051;-74
2022/10/19 00:32:13;;;;;;;16.02;5.50;;;;;;;;;;5012525;28;20013;-76
2022/10/19 00:34:39;;;;;;;18.93;6.07;;;;;;;;;;5013651;28;20028;-77
2022/10/19 00:37:04;;;;;;;14.38;6.47;;;;;;;;;;5012539;28;20302;-77
2022/10/19 00:39:29;;;;;;;13.15;4.90;;;;;;;;;;5014056;28;20942;-77
2022/10/19 00:41:54;;;;;;;10.00;4.80;;;;;;;;;;5022736;28;20261;-77
2022/10/19 00:44:19;;;;;;;15.63;5.87;;;;;;;;;;5015290;28;20013;-76
2022/10/19 00:46:49;;;;;;;12.63;6.07;;;;;;;;;;5013137;28;20279;-76
2022/10/19 00:49:21;;;;;;;10.93;5.65;;;;;;;;;;5002501;28;20021;-77
2022/10/19 00:51:48;;;;;;;14.20;6.00;;;;;;;;;;5012133;28;20012;-77
2022/10/19 00:54:14;;;;;;;13.80;5.63;;;;;;;;;;5013442;28;20017;-77
2022/10/19 00:56:40;;;;;;;10.90;6.63;;;;;;;;;;5012563;28;20016;-77
2022/10/19 00:59:06;;;;;;;9.60;6.35;;;;;;;;;;5029046;28;20043;-76
2022/10/19 01:01:32;;;;;;;10.80;6.13;;;;;;;;;;5016557;28;20020;-77
2022/10/19 01:03:57;;;;;;;13.57;6.63;;;;;;;;;;5011826;28;20847;-77
2022/10/19 01:06:23;;;;;;;15.65;6.13;;;;;;;;;;5016073;28;20073;-77
2022/10/19 01:08:48;;;;;;;12.13;6.38;;;;;;;;;;5012887;28;20117;-81
2022/10/19 01:11:29;;;;;;;19.23;6.90;;;;;;;;;;5013557;28;20813;-78
2022/10/19 01:14:13;;;;;;;14.23;7.43;;;;;;;;;;5025708;28;20023;-77
2022/10/19 01:16:47;;;;;;;16.83;7.18;;;;;;;;;;5039183;28;20012;-78
2022/10/19 01:19:13;;;;;;;;;;;;;;;;;;5030327;28;20030;-78
2022/10/19 01:21:42;;;;;;;14.13;8.20;;;;;;;;;;5029964;28;19911;-78
2022/10/19 01:24:26;;;;;;;17.85;7.40;;;;;;;;;;5018695;28;20027;-78
2022/10/19 01:27:06;;;;;;;17.63;8.32;;;;;;;;;;5014479;28;20471;-78
2022/10/19 01:29:34;;;;;;;12.70;8.05;;;;;;;;;;5002710;28;20845;-77
2022/10/19 01:32:04;;;;;;;16.45;8.32;;;;;;;;;;5029136;28;20073;-77
2022/10/19 01:34:33;;;;;;;14.52;8.15;;;;;;;;;;5014513;28;20035;-77
2022/10/19 01:37:17;;;;;;;12.73;7.47;;;;;;;;;;5012448;28;20090;-77
2022/10/19 01:39:42;;;;;;;15.55;8.57;;;;;;;;;;5051642;28;20013;-77
2022/10/19 01:42:30;;;;;;;26.37;8.47;;;;;;;;;;5013126;28;20086;-77
2022/10/19 01:45:04;;;;;;;14.73;8.07;;;;;;;;;;5012468;28;20267;-77
2022/10/19 01:47:35;;;;;;;14.00;8.38;;;;;;;;;;5009889;28;20020;-77
2022/10/19 01:50:05;;;;;;;25.33;9.65;;;;;;;;;;5013500;28;20070;-77
2022/10/19 01:52:31;;;;;;;19.08;9.00;;;;;;;;;;5014188;28;20079;-68
2022/10/19 01:54:57;;;;;;;22.08;10.15;;;;;;;;;;5030111;28;20808;-79
2022/10/19 01:57:29;;;;;;;13.32;8.48;;;;;;;;;;5020688;28;20027;-79
2022/10/19 01:59:55;;;;;;;15.57;7.90;;;;;;;;;;5013439;28;20873;-81
2022/10/19 02:02:21;;;;;;;12.48;9.02;;;;;;;;;;5016459;28;20120;-81
2022/10/19 02:04:47;;;;;;;21.50;9.88;;;;;;;;;;5022499;28;20818;-80
2022/10/19 02:07:13;;;;;;;16.77;9.60;;;;;;;;;;5016912;28;20024;-81
2022/10/19 02:09:38;;;;;;;17.85;9.32;;;;;;;;;;5015962;28;20184;-80
2022/10/19 02:12:07;;;;;;;21.15;9.70;;;;;;;;;;5012895;28;20067;-80
2022/10/19 02:14:36;;;;;;;16.83;8.95;;;;;;;;;;5030832;28;20013;-79
2022/10/19 02:17:06;;;;;;;29.02;10.48;;;;;;;;;;5032562;28;20280;-77
2022/10/19 02:19:31;;;;;;;20.05;9.63;;;;;;;;;;5013832;28;20020;-78
2022/10/19 02:21:57;;;;;;;19.52;8.57;;;;;;;;;;5014452;28;20055;-79
2022/10/19 02:24:22;;;;;;;17.35;9.95;;;;;;;;;;5014705;28;20020;-82
2022/10/19 02:26:48;;;;;;;24.17;8.88;;;;;;;;;;5015444;28;20226;-80
2022/10/19 02:29:13;;;;;;;17.77;8.85;;;;;;;;;;5016535;28;20021;-80
2022/10/19 02:31:39;;;;;;;25.10;10.57;;;;;;;;;;5017189;28;20024;-80
2022/10/19 02:34:04;;;;;;;14.73;9.27;;;;;;;;;;5016582;28;21004;-79
2022/10/19 02:36:29;;;;;;;18.00;9.23;;;;;;;;;;5013866;28;20075;-81
2022/10/19 02:38:55;;;;;;;15.30;9.63;;;;;;;;;;5018492;28;20757;-80
2022/10/19 02:41:27;;;;;;;19.48;9.65;;;;;;;;;;5018448;28;20013;-80
2022/10/19 02:43:55;;;;;;;16.23;9.05;;;;;;;;;;5018495;28;20876;-79
2022/10/19 02:46:20;;;;;;;21.85;10.02;;;;;;;;;;5031020;28;20015;-79
2022/10/19 02:48:47;;;;;;;16.80;8.40;;;;;;;;;;5021820;28;20017;-79
2022/10/19 02:51:45;;;;;;;21.48;9.98;;;;;;;;;;5020655;28;20278;-80
2022/10/19 02:54:10;;;;;;;18.83;9.43;;;;;;;;;;4990525;28;20068;-79
2022/10/19 02:56:36;;;;;;;16.47;9.40;;;;;;;;;;5022789;28;20021;-79
2022/10/19 02:59:02;;;;;;;21.13;9.95;;;;;;;;;;5018983;28;20271;-81
2022/10/19 03:01:27;;;;;;;16.42;8.73;;;;;;;;;;5018275;28;20515;-74
2022/10/19 03:03:52;;;;;;;14.20;8.45;;;;;;;;;;5014215;28;20025;-74
2022/10/19 03:06:17;;;;;;;16.13;9.75;;;;;;;;;;5019318;28;20805;-76
2022/10/19 03:08:43;;;;;;;18.60;9.77;;;;;;;;;;5015024;28;20124;-74
2022/10/19 03:11:08;;;;;;;18.25;10.13;;;;;;;;;;5014988;28;20020;-74
2022/10/19 03:13:33;;;;;;;22.85;10.70;;;;;;;;;;5016324;28;20017;-76
2022/10/19 03:16:09;;;;;;;13.85;9.10;;;;;;;;;;5012697;28;21088;-74
2022/10/19 03:18:34;;;;;;;14.57;9.70;;;;;;;;;;5014495;28;20113;-74
2022/10/19 03:21:11;;;;;;;21.70;9.85;;;;;;;;;;5033705;28;20906;-74
2022/10/19 03:23:37;;;;;;;18.02;9.82;;;;;;;;;;5033844;28;20099;-78
2022/10/19 03:26:03;;;;;;;17.17;9.85;;;;;;;;;;5013071;28;20017;-77
2022/10/19 03:28:28;;;;;;;15.80;9.15;;;;;;;;;;5013833;28;20013;-77
2022/10/19 03:30:54;;;;;;;21.70;9.43;;;;;;;;;;5014917;28;20012;-77
2022/10/19 03:33:19;;;;;;;17.83;10.23;;;;;;;;;;5016139;28;20060;-77
2022/10/19 03:35:44;;;;;;;13.75;9.90;;;;;;;;;;5013978;28;20884;-75
2022/10/19 03:38:10;;;;;;;20.15;10.80;;;;;;;;;;5011699;28;20028;-75
2022/10/19 03:40:35;;;;;;;19.73;11.43;;;;;;;;;;5032014;28;20912;-75
2022/10/19 03:43:00;;;;;;;22.58;10.43;;;;;;;;;;5014985;28;20016;-75
2022/10/19 03:45:26;;;;;;;19.15;10.50;;;;;;;;;;5013647;28;20028;-77
2022/10/19 03:47:51;;;;;;;15.97;9.57;;;;;;;;;;5014757;28;20027;-77
2022/10/19 03:50:16;;;;;;;15.57;9.35;;;;;;;;;;5016347;28;20290;-79
2022/10/19 03:52:42;;;;;;;18.30;10.25;;;;;;;;;;5013645;28;20027;-77
2022/10/19 03:55:09;;;;;;;15.77;9.82;;;;;;;;;;5034631;28;20884;-80
2022/10/19 03:57:34;;;;;;;20.25;8.90;;;;;;;;;;5048010;28;20017;-79
2022/10/19 03:59:59;;;;;;;27.02;12.05;;;;;;;;;;5015035;28;20073;-77
2022/10/19 04:02:25;;;;;;;16.30;10.10;;;;;;;;;;5015810;28;20928;-77
2022/10/19 04:04:50;;;;;;;17.85;10.65;;;;;;;;;;5014580;28;21023;-79
2022/10/19 04:07:15;;;;;;;17.23;9.88;;;;;;;;;;5031279;28;20135;-79
2022/10/19 04:09:40;;;;;;;15.82;9.73;;;;;;;;;;5011569;28;20040;-79
2022/10/19 04:12:06;;;;;;;15.02;9.55;;;;;;;;;;5008635;28;20900;-79
2022/10/19 04:14:31;;;;;;;19.35;10.60;;;;;;;;;;5013574;28;20785;-79
2022/10/19 04:16:56;;;;;;;12.98;9.82;;;;;;;;;;5014341;28;20791;-79
2022/10/19 04:19:22;;;;;;;23.92;10.55;;;;;;;;;;5014930;28;20120;-84
2022/10/19 04:21:48;;;;;;;19.45;10.82;;;;;;;;;;5018171;28;20027;-85
2022/10/19 04:24:14;;;;;;;17.73;10.82;;;;;;;;;;5034108;28;20051;-83
2022/10/19 04:26:43;;;;;;;18.50;12.48;;;;;;;;;;5023367;28;20017;-83
2022/10/19 04:29:09;;;;;;;19.33;11.55;;;;;;;;;;5028771;28;20028;-84
2022/10/19 04:31:35;;;;;;;19.83;11.60;;;;;;;;;;5026293;28;20172;-85
2022/10/19 04:34:00;;;;;;;16.52;11.25;;;;;;;;;;5014476;28;20196;-81
2022/10/19 04:36:26;;;;;;;17.73;12.63;;;;;;;;;;5027322;28;20029;-84
2022/10/19 04:38:51;;;;;;;29.80;13.55;;;;;;;;;;5026561;28;20030;-79
2022/10/19 04:41:17;;;;;;;15.77;12.57;;;;;;;;;;5017013;28;20650;-83
2022/10/19 04:43:45;;;;;;;18.27;12.20;;;;;;;;;;5042838;28;20754;-84
2022/10/19 04:46:12;;;;;;;20.75;12.80;;;;;;;;;;5029858;28;20013;-82
2022/10/19 04:48:38;;;;;;;19.25;12.10;;;;;;;;;;5024391;28;20017;-82
2022/10/19 04:51:04;;;;;;;20.25;13.70;;;;;;;;;;5023978;28;20182;-83
2022/10/19 04:53:30;;;;;;;24.65;14.93;;;;;;;;;;5024800;28;20766;-82
2022/10/19 04:55:56;;;;;;;22.10;14.23;;;;;;;;;;5023112;28;20066;-83
2022/10/19 04:58:21;;;;;;;14.18;11.65;;;;;;;;;;5026908;28;20862;-81
2022/10/19 05:00:46;;;;;;;23.30;14.27;;;;;;;;;;5024138;28;20012;-84
2022/10/19 05:03:12;;;;;;;24.60;13.48;;;;;;;;;;5024293;28;20893;-83
2022/10/19 05:05:37;;;;;;;26.85;14.48;;;;;;;;;;5026662;28;20808;-82
2022/10/19 05:08:02;;;;;;;30.73;15.57;;;;;;;;;;5017220;28;20064;-75
2022/10/19 05:10:27;;;;;;;23.13;14.55;;;;;;;;;;5023287;28;20178;-76
2022/10/19 05:12:53;;;;;;;21.75;14.88;;;;;;;;;;5008470;28;20794;-76
2022/10/19 05:15:18;;;;;;;20.35;14.80;;;;;;;;;;5011365;28;20027;-76
2022/10/19 05:17:43;;;;;;;26.58;15.10;;;;;;;;;;5012624;28;20060;-76
2022/10/19 05:20:12;;;;;;;21.10;14.07;;;;;;;;;;5012865;28;20055;-78
2022/10/19 05:22:37;;;;;;;23.05;15.77;;;;;;;;;;5007034;28;20017;-77
2022/10/19 05:25:03;;;;;;;19.90;14.38;;;;;;;;;;5007272;28;20129;-77
2022/10/19 05:27:28;;;;;;;31.67;15.57;;;;;;;;;;5048968;28;20759;-79
2022/10/19 05:29:53;;;;;;;26.40;15.38;;;;;;;;;;5017878;28;20118;-79
2022/10/19 05:32:19;;;;;;;19.58;13.68;;;;;;;;;;5012159;28;20131;-73
2022/10/19 05:34:44;;;;;;;25.60;15.83;;;;;;;;;;5028058;28;20815;-76
2022/10/19 05:37:09;;;;;;;34.67;15.10;;;;;;;;;;5030346;28;21264;-73
2022/10/19 05:39:34;;;;;;;24.63;14.70;;;;;;;;;;5037390;28;20793;-80
2022/10/19 05:41:59;;;;;;;32.22;15.65;;;;;;;;;;5003696;28;21143;-80
2022/10/19 05:44:25;;;;;;;26.92;15.10;;;;;;;;;;5009867;28;20017;-80
2022/10/19 05:46:50;;;;;;;23.88;16.00;;;;;;;;;;5011905;28;20027;-78
2022/10/19 05:49:17;;;;;;;20.77;16.10;;;;;;;;;;5011383;28;20021;-79
2022/10/19 05:51:43;;;;;;;24.50;15.73;;;;;;;;;;5021459;28;20031;-80
2022/10/19 05:54:09;;;;;;;24.40;15.90;;;;;;;;;;5031291;28;20025;-79
2022/10/19 05:56:34;;;;;;;20.48;16.17;;;;;;;;;;5012884;28;20016;-80
2022/10/19 05:59:01;;;;;;;19.42;15.70;;;;;;;;;;5011937;28;20057;-75
2022/10/19 06:01:26;;;;;;;25.30;16.05;;;;;;;;;;5077317;28;20095;-80
2022/10/19 06:03:52;;;;;;;30.52;15.95;;;;;;;;;;5077568;28;20058;-79
2022/10/19 06:06:18;;;;;;;20.10;15.07;;;;;;;;;;5090732;28;20367;-79
2022/10/19 06:08:43;;;;;;;23.00;15.73;;;;;;;;;;5080779;28;20464;-79
2022/10/19 06:11:10;;;;;;;24.45;16.33;;;;;;;;;;5072486;28;20028;-80
2022/10/19 06:13:36;;;;;;;20.95;15.73;;;;;;;;;;5054277;28;20035;-79
2022/10/19 06:16:01;;;;;;;24.08;15.10;;;;;;;;;;5053369;28;20024;-78
2022/10/19 06:18:26;;;;;;;23.20;15.25;;;;;;;;;;5054580;28;20028;-79
2022/10/19 06:20:52;;;;;;;25.10;17.67;;;;;;;;;;5072311;28;20451;-77
2022/10/19 06:23:17;;;;;;;26.42;15.90;;;;;;;;;;5069331;28;20341;-79
2022/10/19 06:25:43;;;;;;;27.77;15.38;;;;;;;;;;5077842;28;20008;-79
2022/10/19 06:28:08;;;;;;;21.50;15.40;;;;;;;;;;5057195;28;20434;-78
2022/10/19 06:30:37;;;;;;;22.10;15.07;;;;;;;;;;5051659;28;20108;-78
2022/10/19 06:33:02;;;;;;;21.17;14.43;;;;;;;;;;5040491;28;20016;-79
2022/10/19 06:35:27;;;;;;;34.08;16.58;;;;;;;;;;5057536;28;20031;-78
2022/10/19 06:37:54;;;;;;;21.10;15.00;;;;;;;;;;5059804;28;20040;-78
2022/10/19 06:40:19;;;;;;;25.60;15.90;;;;;;;;;;5056489;28;20036;-78
2022/10/19 06:42:45;;;;;;;21.30;14.15;;;;;;;;;;5075110;28;20017;-78
2022/10/19 06:45:10;;;;;;;25.90;16.25;;;;;;;;;;5056821;28;20013;-78
2022/10/19 06:47:35;;;;;;;31.75;15.98;;;;;;;;;;5056716;28;20469;-80
2022/10/19 06:50:01;;;;;;;27.02;14.82;;;;;;;;;;5075303;28;20021;-80
2022/10/19 06:52:26;;;;;;;23.23;15.35;;;;;;;;;;5061259;28;20016;-79
2022/10/19 06:54:52;;;;;;;26.63;16.38;;;;;;;;;;5070032;28;20092;-79
2022/10/19 06:57:17;;;;;;;21.25;15.85;;;;;;;;;;5073018;28;20043;-79
2022/10/19 06:59:42;;;;;;;22.63;15.03;;;;;;;;;;5056600;28;20013;-79
2022/10/19 07:02:09;;;;;;;26.48;16.20;;;;;;;;;;5057291;28;20263;-80
2022/10/19 07:04:34;;;;;;;27.35;17.08;;;;;;;;;;5090556;28;20031;-78
2022/10/19 07:06:59;;;;;;;23.75;17.77;;;;;;;;;;5075201;28;20016;-79
2022/10/19 07:09:25;;;;;;;26.63;16.83;;;;;;;;;;5054561;28;20019;-79
2022/10/19 07:11:50;;;;;;;21.90;16.97;;;;;;;;;;5074692;28;20273;-80
2022/10/19 07:14:16;;;;;;;25.00;15.35;;;;;;;;;;5074768;28;20283;-79
2022/10/19 07:16:41;;;;;;;26.75;15.57;;;;;;;;;;5075123;28;20088;-80
2022/10/19 07:19:06;;;;;;;25.57;16.80;;;;;;;;;;5077252;28;20035;-80
2022/10/19 07:21:32;;;;;;;22.83;17.75;;;;;;;;;;5073821;28;20266;-78
2022/10/19 07:23:57;;;;;;;29.77;17.75;;;;;;;;;;5056684;28;20378;-80
2022/10/19 07:26:25;;;;;;;20.45;16.48;;;;;;;;;;5074554;28;20016;-80
2022/10/19 07:28:51;;;;;;;23.63;16.90;;;;;;;;;;5075106;28;20120;-80
2022/10/19 07:31:19;;;;;;;28.85;17.27;;;;;;;;;;5073597;28;20091;-80
2022/10/19 07:33:44;;;;;;;25.27;16.55;;;;;;;;;;5056466;28;20020;-79
2022/10/19 07:36:10;;;;;;;22.77;15.95;;;;;;;;;;5054957;28;20109;-81
2022/10/19 07:38:35;;;;;;;26.60;15.45;;;;;;;;;;5072476;28;20016;-80
2022/10/19 07:41:11;;;;;;;19.92;15.65;;;;;;;;;;5067117;28;20019;-80
2022/10/19 07:43:37;;;;;;;24.95;15.38;;;;;;;;;;5056118;28;20016;-80
2022/10/19 07:46:04;;;;;;;24.95;15.73;;;;;;;;;;5074292;28;20352;-82
2022/10/19 07:48:29;;;;;;;24.85;16.52;;;;;;;;;;5074067;28;20045;-80
2022/10/19 07:50:54;;;;;;;24.38;14.57;;;;;;;;;;5056142;28;20471;-81
2022/10/19 07:53:20;;;;;;;26.95;15.70;;;;;;;;;;5055656;28;20351;-80
2022/10/19 07:55:45;;;;;;;32.47;17.67;;;;;;;;;;5055581;28;20055;-80
2022/10/19 07:58:11;;;;;;;28.23;15.73;;;;;;;;;;5073992;28;20030;-80
2022/10/19 08:00:36;;;;;;;24.20;16.05;;;;;;;;;;5042048;28;20464;-80
2022/10/19 08:03:01;;;;;;;20.57;16.20;;;;;;;;;;5073794;28;20013;-80
2022/10/19 08:05:26;;;;;;;29.70;17.48;;;;;;;;;;5069690;28;20377;-81
2022/10/19 08:07:52;;;;;;;27.33;16.50;;;;;;;;;;5072745;28;20378;-79
2022/10/19 08:10:17;;;;;;;23.30;16.40;;;;;;;;;;5073988;28;20020;-80
2022/10/19 08:12:42;;;;;;;22.73;16.00;;;;;;;;;;5073480;28;20271;-80
2022/10/19 08:15:08;;;;;;;22.15;15.80;;;;;;;;;;5055429;28;20322;-81
2022/10/19 08:17:36;;;;;;;24.63;15.15;;;;;;;;;;5074053;28;20384;-80
2022/10/19 08:20:02;;;;;;;26.02;15.90;;;;;;;;;;5071589;28;20017;-80
2022/10/19 08:22:28;;;;;;;22.10;14.43;;;;;;;;;;5040509;28;20028;-80
2022/10/19 08:24:53;;;;;;;18.73;14.75;;;;;;;;;;5061972;28;20383;-79
2022/10/19 08:27:18;;;;;;;24.40;14.52;;;;;;;;;;5055607;28;20020;-79
2022/10/19 08:29:43;;;;;;;24.57;15.70;;;;;;;;;;5075065;28;20092;-80
2022/10/19 08:32:09;;;;;;;22.75;14.95;;;;;;;;;;5055328;28;20306;-80
2022/10/19 08:34:34;;;;;;;28.50;15.13;;;;;;;;;;5070579;28;20020;-78
2022/10/19 08:37:00;;;;;;;19.73;14.70;;;;;;;;;;5054699;28;20040;-79
2022/10/19 08:39:26;;;;;;;21.23;13.50;;;;;;;;;;5055633;28;20017;-79
2022/10/19 08:42:10;;;;;;;22.30;13.77;;;;;;;;;;5073165;28;20095;-79
2022/10/19 08:44:38;;;;;;;18.23;13.23;;;;;;;;;;5073222;28;20483;-78
2022/10/19 08:47:22;;;;;;;28.27;13.85;;;;;;;;;;5070659;28;20484;-80
2022/10/19 08:49:47;;;;;;;19.98;13.77;;;;;;;;;;5054402;28;20383;-80
2022/10/19 08:52:15;;;;;;;24.20;12.88;;;;;;;;;;5069891;28;20024;-81
2022/10/19 08:54:59;;;;;;;24.23;12.88;;;;;;;;;;5070944;28;20021;-78
2022/10/19 08:57:25;;;;;;;22.80;12.73;;;;;;;;;;5038370;28;20029;-82
2022/10/19 09:00:01;;;;;;;18.67;11.40;;;;;;;;;;5051328;28;20125;-81
2022/10/19 09:02:51;;;;;;;22.10;12.70;;;;;;;;;;5053099;28;20020;-79
2022/10/19 09:05:25;;;;;;;21.48;11.45;;;;;;;;;;5026638;28;20082;-80
2022/10/19 09:07:52;;;;;;;20.83;12.13;;;;;;;;;;5028913;28;20810;-81
2022/10/19 09:10:19;;;;;;;28.77;11.40;;;;;;;;;;5047669;28;20074;-78
2022/10/19 09:12:48;;;;;;;13.38;10.55;;;;;;;;;;5034052;28;20032;-77
2022/10/19 09:15:16;;;;;;;17.37;10.87;;;;;;;;;;5065778;28;20024;-79
2022/10/19 09:17:42;;;;;;;17.23;11.98;;;;;;;;;;5042710;28;20052;-81
2022/10/19 09:20:15;;;;;;;17.90;10.40;;;;;;;;;;5038527;28;20116;-77
2022/10/19 09:22:40;;;;;;;16.05;10.13;;;;;;;;;;5055999;28;20126;-82
2022/10/19 09:25:22;;;;;;;17.77;10.95;;;;;;;;;;5046945;28;20905;-79
2022/10/19 09:27:48;;;;;;;17.15;10.52;;;;;;;;;;5044234;28;20093;-75
2022/10/19 09:30:18;;;;;;;15.20;9.57;;;;;;;;;;5076459;28;20091;-78
2022/10/19 09:32:44;;;;;;;17.75;10.20;;;;;;;;;;5062204;28;20029;-77
2022/10/19 09:35:15;;;;;;;22.92;11.27;;;;;;;;;;5059751;28;20012;-77
2022/10/19 09:37:43;;;;;;;21.08;10.93;;;;;;;;;;5034069;28;20036;-79
2022/10/19 09:40:13;;;;;;;11.55;8.93;;;;;;;;;;5026059;28;20025;-82
2022/10/19 09:42:38;;;;;;;14.05;8.75;;;;;;;;;;5077613;28;20028;-81
2022/10/19 09:45:19;;;;;;;19.13;10.40;;;;;;;;;;5072584;28;20017;-78
2022/10/19 09:47:46;;;;;;;13.43;7.95;;;;;;;;;;5073455;28;20382;-80
2022/10/19 09:50:25;;;;;;;18.30;9.43;;;;;;;;;;5053376;28;20023;-78
2022/10/19 09:52:52;;;;;;;18.85;8.40;;;;;;;;;;5056025;28;20028;-77
2022/10/19 09:55:26;;;;;;;19.02;9.55;;;;;;;;;;5070358;28;20024;-78
2022/10/19 09:57:59;;;;;;;14.45;8.60;;;;;;;;;;5070352;28;20107;-76
2022/10/19 10:00:31;;;;;;;15.70;8.45;;;;;;;;;;5077375;28;20020;-75
2022/10/19 10:02:56;;;;;;;15.45;8.55;;;;;;;;;;5069542;28;20356;-77
2022/10/19 10:05:32;;;;;;;14.70;10.13;;;;;;;;;;5088451;28;20027;-77
2022/10/19 10:07:57;;;;;;;14.20;9.18;;;;;;;;;;5059738;28;20036;-76
2022/10/19 10:10:24;;;;;;;20.33;10.75;;;;;;;;;;5078248;28;20020;-76
2022/10/19 10:12:50;;;;;;;12.45;8.82;;;;;;;;;;5062097;28;20016;-78
2022/10/19 10:15:17;;;;;;;15.20;8.98;;;;;;;;;;5063861;28;20435;-81
2022/10/19 10:17:45;;;;;;;23.08;10.00;;;;;;;;;;5062784;28;20016;-78
2022/10/19 10:20:31;;;;;;;14.90;9.63;;;;;;;;;;5060208;28;20446;-79
2022/10/19 10:22:58;;;;;;;12.05;9.55;;;;;;;;;;5066136;28;20034;-79
2022/10/19 10:25:28;;;;;;;12.23;9.00;;;;;;;;;;5047482;28;20032;-76
2022/10/19 10:27:58;;;;;;;14.82;9.32;;;;;;;;;;5065518;28;20020;-79
2022/10/19 10:30:24;;;;;;;14.13;8.23;;;;;;;;;;5042261;28;20024;-77
2022/10/19 10:32:53;;;;;;;25.95;9.55;;;;;;;;;;5061405;28;20380;-79
2022/10/19 10:35:22;;;;;;;15.05;8.98;;;;;;;;;;5076991;28;20083;-77
2022/10/19 10:37:48;;;;;;;13.20;9.05;;;;;;;;;;5055962;28;20032;-78
2022/10/19 10:40:27;;;;;;;13.05;9.00;;;;;;;;;;5062707;28;20074;-79
2022/10/19 10:42:53;;;;;;;11.32;7.85;;;;;;;;;;5041750;28;20028;-76
2022/10/19 10:45:29;;;;;;;14.60;9.23;;;;;;;;;;5067789;28;20025;-76
2022/10/19 10:47:55;;;;;;;19.40;10.63;;;;;;;;;;5076571;28;20919;-78
2022/10/19 10:50:31;;;;;;;15.40;10.15;;;;;;;;;;5026786;28;20083;-77
2022/10/19 10:53:01;;;;;;;18.48;10.90;;;;;;;;;;5061563;28;20055;-78
2022/10/19 10:55:27;;;;;;;14.88;9.18;;;;;;;;;;5026717;28;20115;-78
2022/10/19 10:57:57;;;;;;;14.70;9.32;;;;;;;;;;5045883;28;20859;-77
2022/10/19 11:00:23;;;;;;;12.48;9.70;;;;;;;;;;5044722;28;20031;-78
2022/10/19 11:03:04;;;;;;;16.70;9.98;;;;;;;;;;5078172;28;20473;-80
2022/10/19 11:05:38;;;;;;;18.23;9.70;;;;;;;;;;5035717;28;20065;-77
2022/10/19 11:08:17;;;;;;;22.50;12.48;;;;;;;;;;5042489;28;20020;-76
2022/10/19 11:10:50;;;;;;;17.63;12.15;;;;;;;;;;5039246;28;20025;-74
2022/10/19 11:13:24;;;;;;;22.20;11.73;;;;;;;;;;5067734;28;20664;-73
2022/10/19 11:15:50;;;;;;;;;;;;;;;;;;5024053;28;20489;-79
2022/10/19 11:18:18;;;;;;;27.48;12.10;;;;;;;;;;5066181;28;20687;-76
2022/10/19 11:20:50;;;;;;;13.50;10.82;;;;;;;;;;5049024;28;20016;-77
2022/10/19 11:23:31;;;;;;;15.65;11.25;;;;;;;;;;5032617;28;20028;-75
2022/10/19 11:26:09;;;;;;;23.08;12.45;;;;;;;;;;5031560;28;20107;-76
2022/10/19 11:28:49;;;;;;;16.02;13.45;;;;;;;;;;5064253;28;20059;-76
2022/10/19 11:31:18;;;;;;;20.27;15.13;;;;;;;;;;5053978;28;20090;-76
2022/10/19 11:33:55;;;;;;;18.73;15.20;;;;;;;;;;5044285;28;20036;-74
2022/10/19 11:36:39;;;;;;;20.20;16.15;;;;;;;;;;5071560;28;20044;-74
2022/10/19 11:39:23;;;;;;;23.93;15.33;;;;;;;;;;5052281;28;20019;-76
2022/10/19 11:41:48;;;;;;;21.15;15.00;;;;;;;;;;5066416;28;20107;-78
2022/10/19 11:44:19;;;;;;;17.92;13.50;;;;;;;;;;5055740;28;20812;-75
2022/10/19 11:47:03;;;;;;;22.33;14.80;;;;;;;;;;5055478;28;20065;-76
2022/10/19 11:49:28;;;;;;;17.63;13.80;;;;;;;;;;5071544;28;20049;-76
2022/10/19 11:52:00;;;;;;;28.80;16.13;;;;;;;;;;5073838;28;20395;-75
2022/10/19 11:54:25;;;;;;;22.83;16.42;;;;;;;;;;5073601;28;20275;-74
2022/10/19 11:56:56;;;;;;;23.90;14.77;;;;;;;;;;5073822;28;20032;-76
2022/10/19 11:59:24;;;;;;;22.30;17.10;;;;;;;;;;5055492;28;20760;-73
2022/10/19 12:01:55;;;;;;;39.08;15.73;;;;;;;;;;5056454;28;20012;-77
2022/10/19 12:04:32;;;;;;;19.52;15.43;;;;;;;;;;5051420;28;20032;-76
2022/10/19 12:07:10;;;;;;;21.80;16.08;;;;;;;;;;5054081;28;20017;-75
2022/10/19 12:09:35;;;;;;;19.58;14.30;;;;;;;;;;5070618;28;20025;-77
2022/10/19 12:12:16;;;;;;;22.73;16.27;;;;;;;;;;5073539;28;20084;-75
2022/10/19 12:14:42;;;;;;;26.15;15.85;;;;;;;;;;5055870;28;20020;-77
2022/10/19 12:17:13;;;;;;;33.90;13.98;;;;;;;;;;5053923;28;20360;-78
2022/10/19 12:19:41;;;;;;;24.90;14.43;;;;;;;;;;5071788;28;20056;-78
2022/10/19 12:22:12;;;;;;;24.65;16.15;;;;;;;;;;5072991;28;20020;-77
2022/10/19 12:24:37;;;;;;;25.95;17.35;;;;;;;;;;5074066;28;20024;-77
2022/10/19 12:27:03;;;;;;;21.35;16.52;;;;;;;;;;5062524;28;20078;-78
2022/10/19 12:29:31;;;;;;;22.85;15.88;;;;;;;;;;5071473;28;20013;-75
2022/10/19 12:31:58;;;;;;;24.58;18.02;;;;;;;;;;5073108;28;20024;-74
2022/10/19 12:34:36;;;;;;;22.35;16.55;;;;;;;;;;5075883;28;20016;-78
2022/10/19 12:37:19;;;;;;;23.55;14.93;;;;;;;;;;5071767;28;20047;-80
2022/10/19 12:39:54;;;;;;;25.75;15.63;;;;;;;;;;5041308;28;20456;-80
2022/10/19 12:42:33;;;;;;;21.13;16.83;;;;;;;;;;5054686;28;20364;-80
2022/10/19 12:45:17;;;;;;;31.48;18.83;;;;;;;;;;5058272;28;20028;-81
2022/10/19 12:48:01;;;;;;;20.17;15.50;;;;;;;;;;5053621;28;20025;-78
2022/10/19 12:50:45;;;;;;;21.08;16.60;;;;;;;;;;5056045;28;20028;-81
2022/10/19 12:53:21;;;;;;;18.40;16.30;;;;;;;;;;5054121;28;20028;-78
2022/10/19 12:55:56;;;;;;;18.38;13.95;;;;;;;;;;5050482;28;20070;-78
2022/10/19 12:58:22;;;;;;;23.88;15.27;;;;;;;;;;5072585;28;20474;-78
2022/10/19 13:00:58;;;;;;;23.65;14.98;;;;;;;;;;5052657;28;20426;-78
2022/10/19 13:03:26;;;;;;;23.35;13.75;;;;;;;;;;5033842;28;20008;-77
2022/10/19 13:05:58;;;;;;;24.30;14.45;;;;;;;;;;5052160;28;20044;-78
2022/10/19 13:08:27;;;;;;;21.75;14.13;;;;;;;;;;5071639;28;20596;-77
2022/10/19 13:11:07;;;;;;;25.92;14.68;;;;;;;;;;5071612;28;20016;-79
2022/10/19 13:13:51;;;;;;;21.70;14.77;;;;;;;;;;5061453;28;20463;-77
2022/10/19 13:16:28;;;;;;;18.23;13.57;;;;;;;;;;5071485;28;20017;-78
2022/10/19 13:18:56;;;;;;;25.17;13.50;;;;;;;;;;5051400;28;20040;-76
2022/10/19 13:21:40;;;;;;;20.77;16.10;;;;;;;;;;5046475;28;20029;-77
2022/10/19 13:24:35;;;;;;;23.90;16.33;;;;;;;;;;5046231;28;20360;-77
2022/10/19 13:27:03;;;;;;;19.30;14.75;;;;;;;;;;5048473;28;20051;-74
2022/10/19 13:29:37;;;;;;;22.90;15.57;;;;;;;;;;5074978;28;20012;-75
2022/10/19 13:32:21;;;;;;;25.60;16.45;;;;;;;;;;5054507;28;20093;-74
2022/10/19 13:34:47;;;;;;;21.52;16.33;;;;;;;;;;5071245;28;20064;-75
2022/10/19 13:37:15;;;;;;;20.38;17.08;;;;;;;;;;5052202;28;20090;-77
2022/10/19 13:39:40;;;;;;;25.23;16.65;;;;;;;;;;5053637;28;20095;-77
2022/10/19 13:42:24;;;;;;;27.30;18.70;;;;;;;;;;5053751;28;20104;-77
2022/10/19 13:44:51;;;;;;;24.70;16.27;;;;;;;;;;5041125;28;20021;-76
2022/10/19 13:47:36;;;;;;;28.70;17.20;;;;;;;;;;5053595;28;20036;-76
2022/10/19 13:50:05;;;;;;;28.27;16.42;;;;;;;;;;5048494;28;20043;-75
2022/10/19 13:52:30;;;;;;;27.02;18.27;;;;;;;;;;5050513;28;20017;-77
2022/10/19 13:55:17;;;;;;;25.10;16.87;;;;;;;;;;5071320;28;20374;-76
2022/10/19 13:57:51;;;;;;;20.58;15.82;;;;;;;;;;5052541;28;20366;-77
2022/10/19 14:00:20;;;;;;;22.85;15.85;;;;;;;;;;5069428;28;20086;-79
2022/10/19 14:03:22;;;;;;;21.33;15.52;;;;;;;;;;5052558;28;20017;-77
2022/10/19 14:05:50;;;;;;;18.52;14.75;;;;;;;;;;4996197;28;20134;-75
2022/10/19 14:08:27;;;;;;;21.65;15.68;;;;;;;;;;5059750;28;20040;-79
2022/10/19 14:11:19;;;;;;;19.30;14.88;;;;;;;;;;5070904;28;20055;-80
2022/10/19 14:13:45;;;;;;;22.10;17.55;;;;;;;;;;5058485;28;20039;-76
2022/10/19 14:16:20;;;;;;;25.33;15.80;;;;;;;;;;5068435;28;20032;-79
2022/10/19 14:18:52;;;;;;;22.58;15.07;;;;;;;;;;5040261;28;20024;-77
2022/10/19 14:21:27;;;;;;;21.85;14.13;;;;;;;;;;5072764;28;20016;-76
2022/10/19 14:23:52;;;;;;;19.42;13.55;;;;;;;;;;5076233;28;20013;-76
2022/10/19 14:26:19;;;;;;;20.73;14.07;;;;;;;;;;5071188;28;20107;-78
2022/10/19 14:28:50;;;;;;;25.08;13.10;;;;;;;;;;5052438;28;20130;-76
2022/10/19 14:31:21;;;;;;;16.92;11.93;;;;;;;;;;5052006;28;20445;-78